sensor_id;sensor_type;location;lat;lon;timestamp;P1;durP1;ratioP1;P2;durP2;ratioP2
52620;SDS011;38515;53.160;6.990;2023-06-10T00:02:08;21.58;;;20.02;;
52620;SDS011;38515;53.160;6.990;2023-06-10T00:04:34;19.83;;;18.35;;
52620;SDS011;38515;53.160;6.990;2023-06-10T00:07:04;16.52;;;15.40;;
52620;SDS011;38515;53.160;6.990;2023-06-10T00:09:37;21.17;;;19.75;;
52620;SDS011;38515;53.160;6.990;2023-06-10T00:12:04;22.67;;;21.38;;
52620;SDS011;38515;53.160;6.990;2023-06-10T00:14:32;23.75;;;22.33;;
52620;SDS011;38515;53.160;6.990;2023-06-10T00:16:58;52.40;;;49.88;;
52620;SDS011;38515;53.160;6.990;2023-06-10T00:19:24;27.33;;;25.50;;
52620;SDS011;38515;53.160;6.990;2023-06-10T00:21:55;67.45;;;64.60;;
52620;SDS011;38515;53.160;6.990;2023-06-10T00:24:22;67.57;;;64.50;;
52620;SDS011;38515;53.160;6.990;2023-06-10T00:26:48;62.47;;;59.55;;
52620;SDS011;38515;53.160;6.990;2023-06-10T00:29:13;61.78;;;58.95;;
52620;SDS011;38515;53.160;6.990;2023-06-10T00:31:40;72.45;;;69.18;;
52620;SDS011;38515;53.160;6.990;2023-06-10T00:34:06;68.68;;;65.53;;
52620;SDS011;38515;53.160;6.990;2023-06-10T00:36:32;65.95;;;63.08;;
52620;SDS011;38515;53.160;6.990;2023-06-10T00:38:59;29.45;;;27.83;;
52620;SDS011;38515;53.160;6.990;2023-06-10T00:41:24;74.60;;;71.30;;
52620;SDS011;38515;53.160;6.990;2023-06-10T00:43:53;65.88;;;63.05;;
52620;SDS011;38515;53.160;6.990;2023-06-10T00:46:19;58.97;;;55.47;;
52620;SDS011;38515;53.160;6.990;2023-06-10T00:48:49;126.07;;;121.03;;
52620;SDS011;38515;53.160;6.990;2023-06-10T00:51:19;27.20;;;25.38;;
52620;SDS011;38515;53.160;6.990;2023-06-10T00:53:45;88.75;;;84.85;;
52620;SDS011;38515;53.160;6.990;2023-06-10T00:56:12;231.10;;;221.45;;
52620;SDS011;38515;53.160;6.990;2023-06-10T00:58:39;133.13;;;127.75;;
52620;SDS011;38515;53.160;6.990;2023-06-10T01:01:05;110.82;;;105.82;;
52620;SDS011;38515;53.160;6.990;2023-06-10T01:03:31;54.30;;;51.78;;
52620;SDS011;38515;53.160;6.990;2023-06-10T01:12:02;70.00;;;66.80;;
52620;SDS011;38515;53.160;6.990;2023-06-10T01:14:35;47.78;;;45.33;;
52620;SDS011;38515;53.160;6.990;2023-06-10T01:17:01;46.95;;;44.72;;
52620;SDS011;38515;53.160;6.990;2023-06-10T01:19:28;52.60;;;50.03;;
52620;SDS011;38515;53.160;6.990;2023-06-10T01:21:56;48.60;;;45.72;;
52620;SDS011;38515;53.160;6.990;2023-06-10T01:24:26;53.00;;;50.30;;
52620;SDS011;38515;53.160;6.990;2023-06-10T01:26:53;52.53;;;50.10;;
52620;SDS011;38515;53.160;6.990;2023-06-10T01:29:28;87.38;;;83.57;;
52620;SDS011;38515;53.160;6.990;2023-06-10T01:32:01;136.70;;;131.13;;
52620;SDS011;38515;53.160;6.990;2023-06-10T01:34:33;241.93;;;231.85;;
52620;SDS011;38515;53.160;6.990;2023-06-10T01:37:00;142.77;;;136.75;;
52620;SDS011;38515;53.160;6.990;2023-06-10T01:39:29;139.32;;;133.70;;
52620;SDS011;38515;53.160;6.990;2023-06-10T01:41:56;132.95;;;127.63;;
52620;SDS011;38515;53.160;6.990;2023-06-10T01:44:22;93.57;;;89.53;;
52620;SDS011;38515;53.160;6.990;2023-06-10T01:46:49;101.25;;;96.95;;
52620;SDS011;38515;53.160;6.990;2023-06-10T01:49:15;80.10;;;76.45;;
52620;SDS011;38515;53.160;6.990;2023-06-10T01:51:40;150.10;;;143.95;;
52620;SDS011;38515;53.160;6.990;2023-06-10T01:54:06;63.38;;;60.40;;
52620;SDS011;38515;53.160;6.990;2023-06-10T01:56:32;38.13;;;35.53;;
52620;SDS011;38515;53.160;6.990;2023-06-10T01:58:58;33.35;;;31.20;;
52620;SDS011;38515;53.160;6.990;2023-06-10T02:01:25;45.88;;;43.47;;
52620;SDS011;38515;53.160;6.990;2023-06-10T02:03:51;20.10;;;18.77;;
52620;SDS011;38515;53.160;6.990;2023-06-10T02:06:17;23.00;;;21.30;;
52620;SDS011;38515;53.160;6.990;2023-06-10T02:08:42;29.77;;;28.20;;
52620;SDS011;38515;53.160;6.990;2023-06-10T02:11:08;29.60;;;27.67;;
52620;SDS011;38515;53.160;6.990;2023-06-10T02:13:34;19.20;;;17.40;;
52620;SDS011;38515;53.160;6.990;2023-06-10T02:16:00;27.92;;;26.33;;
52620;SDS011;38515;53.160;6.990;2023-06-10T02:18:26;18.02;;;16.73;;
52620;SDS011;38515;53.160;6.990;2023-06-10T02:20:53;19.63;;;18.15;;
52620;SDS011;38515;53.160;6.990;2023-06-10T02:23:19;28.15;;;26.15;;
52620;SDS011;38515;53.160;6.990;2023-06-10T02:25:45;27.23;;;25.45;;
52620;SDS011;38515;53.160;6.990;2023-06-10T02:28:13;22.65;;;21.02;;
52620;SDS011;38515;53.160;6.990;2023-06-10T02:30:40;23.58;;;21.77;;
52620;SDS011;38515;53.160;6.990;2023-06-10T02:33:06;20.60;;;19.15;;
52620;SDS011;38515;53.160;6.990;2023-06-10T02:35:38;17.80;;;16.20;;
52620;SDS011;38515;53.160;6.990;2023-06-10T02:38:05;21.25;;;19.73;;
52620;SDS011;38515;53.160;6.990;2023-06-10T02:40:31;23.20;;;21.73;;
52620;SDS011;38515;53.160;6.990;2023-06-10T02:42:57;16.98;;;15.40;;
52620;SDS011;38515;53.160;6.990;2023-06-10T02:45:24;17.10;;;15.52;;
52620;SDS011;38515;53.160;6.990;2023-06-10T02:47:50;20.45;;;18.63;;
52620;SDS011;38515;53.160;6.990;2023-06-10T02:50:16;19.35;;;17.65;;
52620;SDS011;38515;53.160;6.990;2023-06-10T02:52:41;34.33;;;31.98;;
52620;SDS011;38515;53.160;6.990;2023-06-10T02:55:07;64.35;;;61.33;;
52620;SDS011;38515;53.160;6.990;2023-06-10T02:57:33;71.10;;;67.20;;
52620;SDS011;38515;53.160;6.990;2023-06-10T02:59:59;92.43;;;88.28;;
52620;SDS011;38515;53.160;6.990;2023-06-10T03:02:26;103.15;;;98.82;;
52620;SDS011;38515;53.160;6.990;2023-06-10T03:04:57;76.15;;;72.50;;
52620;SDS011;38515;53.160;6.990;2023-06-10T03:07:23;36.55;;;34.25;;
52620;SDS011;38515;53.160;6.990;2023-06-10T03:09:49;38.45;;;36.00;;
52620;SDS011;38515;53.160;6.990;2023-06-10T03:12:15;47.92;;;45.20;;
52620;SDS011;38515;53.160;6.990;2023-06-10T03:14:41;50.40;;;47.95;;
52620;SDS011;38515;53.160;6.990;2023-06-10T03:17:07;47.53;;;44.65;;
52620;SDS011;38515;53.160;6.990;2023-06-10T03:19:36;43.97;;;41.47;;
52620;SDS011;38515;53.160;6.990;2023-06-10T03:22:13;62.55;;;59.30;;
52620;SDS011;38515;53.160;6.990;2023-06-10T03:24:40;48.95;;;46.22;;
52620;SDS011;38515;53.160;6.990;2023-06-10T03:27:07;65.82;;;62.30;;
52620;SDS011;38515;53.160;6.990;2023-06-10T03:29:33;55.63;;;52.45;;
52620;SDS011;38515;53.160;6.990;2023-06-10T03:31:59;55.40;;;52.50;;
52620;SDS011;38515;53.160;6.990;2023-06-10T03:34:25;42.10;;;39.60;;
52620;SDS011;38515;53.160;6.990;2023-06-10T03:36:50;56.97;;;53.65;;
52620;SDS011;38515;53.160;6.990;2023-06-10T03:39:16;60.13;;;57.13;;
52620;SDS011;38515;53.160;6.990;2023-06-10T03:41:42;53.78;;;50.72;;
52620;SDS011;38515;53.160;6.990;2023-06-10T03:44:08;58.78;;;55.63;;
52620;SDS011;38515;53.160;6.990;2023-06-10T03:46:34;31.60;;;29.25;;
52620;SDS011;38515;53.160;6.990;2023-06-10T03:49:00;47.10;;;44.25;;
52620;SDS011;38515;53.160;6.990;2023-06-10T03:51:26;39.35;;;36.70;;
52620;SDS011;38515;53.160;6.990;2023-06-10T03:53:52;51.83;;;48.38;;
52620;SDS011;38515;53.160;6.990;2023-06-10T03:56:18;63.30;;;60.17;;
52620;SDS011;38515;53.160;6.990;2023-06-10T03:58:44;63.20;;;59.55;;
52620;SDS011;38515;53.160;6.990;2023-06-10T04:01:10;93.72;;;88.93;;
52620;SDS011;38515;53.160;6.990;2023-06-10T04:03:38;74.50;;;70.70;;
52620;SDS011;38515;53.160;6.990;2023-06-10T04:06:09;90.05;;;85.45;;
52620;SDS011;38515;53.160;6.990;2023-06-10T04:08:35;86.30;;;81.35;;
52620;SDS011;38515;53.160;6.990;2023-06-10T04:11:01;86.20;;;81.75;;
52620;SDS011;38515;53.160;6.990;2023-06-10T04:13:27;52.00;;;49.20;;
52620;SDS011;38515;53.160;6.990;2023-06-10T04:15:53;57.95;;;54.20;;
52620;SDS011;38515;53.160;6.990;2023-06-10T04:18:21;57.70;;;54.25;;
52620;SDS011;38515;53.160;6.990;2023-06-10T04:20:47;78.28;;;73.57;;
52620;SDS011;38515;53.160;6.990;2023-06-10T04:23:13;56.13;;;52.53;;
52620;SDS011;38515;53.160;6.990;2023-06-10T04:25:39;57.00;;;53.58;;
52620;SDS011;38515;53.160;6.990;2023-06-10T04:28:05;54.83;;;51.88;;
52620;SDS011;38515;53.160;6.990;2023-06-10T04:30:30;63.15;;;59.83;;
52620;SDS011;38515;53.160;6.990;2023-06-10T04:32:57;67.45;;;63.47;;
52620;SDS011;38515;53.160;6.990;2023-06-10T04:35:22;70.35;;;66.63;;
52620;SDS011;38515;53.160;6.990;2023-06-10T04:37:49;67.60;;;64.15;;
52620;SDS011;38515;53.160;6.990;2023-06-10T04:40:15;76.30;;;72.50;;
52620;SDS011;38515;53.160;6.990;2023-06-10T04:42:41;74.63;;;70.88;;
52620;SDS011;38515;53.160;6.990;2023-06-10T04:45:07;56.50;;;53.55;;
52620;SDS011;38515;53.160;6.990;2023-06-10T04:47:34;76.18;;;72.32;;
52620;SDS011;38515;53.160;6.990;2023-06-10T04:50:00;78.35;;;73.78;;
52620;SDS011;38515;53.160;6.990;2023-06-10T04:52:27;77.18;;;72.38;;
52620;SDS011;38515;53.160;6.990;2023-06-10T04:54:53;68.93;;;65.15;;
52620;SDS011;38515;53.160;6.990;2023-06-10T04:57:19;73.03;;;69.38;;
52620;SDS011;38515;53.160;6.990;2023-06-10T04:59:46;47.33;;;43.90;;
52620;SDS011;38515;53.160;6.990;2023-06-10T05:02:12;49.72;;;46.60;;
52620;SDS011;38515;53.160;6.990;2023-06-10T05:04:38;46.38;;;43.30;;
52620;SDS011;38515;53.160;6.990;2023-06-10T05:07:04;42.17;;;39.42;;
52620;SDS011;38515;53.160;6.990;2023-06-10T05:09:30;38.33;;;35.65;;
52620;SDS011;38515;53.160;6.990;2023-06-10T05:11:57;38.20;;;35.45;;
52620;SDS011;38515;53.160;6.990;2023-06-10T05:14:23;43.63;;;40.63;;
52620;SDS011;38515;53.160;6.990;2023-06-10T05:16:49;42.67;;;39.92;;
52620;SDS011;38515;53.160;6.990;2023-06-10T05:19:15;39.63;;;37.10;;
52620;SDS011;38515;53.160;6.990;2023-06-10T05:21:41;55.55;;;52.08;;
52620;SDS011;38515;53.160;6.990;2023-06-10T05:24:07;51.53;;;47.45;;
52620;SDS011;38515;53.160;6.990;2023-06-10T05:26:35;55.05;;;51.60;;
52620;SDS011;38515;53.160;6.990;2023-06-10T05:29:07;41.60;;;39.13;;
52620;SDS011;38515;53.160;6.990;2023-06-10T05:31:36;31.83;;;29.73;;
52620;SDS011;38515;53.160;6.990;2023-06-10T05:34:02;42.30;;;39.67;;
52620;SDS011;38515;53.160;6.990;2023-06-10T05:36:28;31.85;;;29.70;;
52620;SDS011;38515;53.160;6.990;2023-06-10T05:38:53;63.88;;;60.53;;
52620;SDS011;38515;53.160;6.990;2023-06-10T05:41:19;55.75;;;52.88;;
52620;SDS011;38515;53.160;6.990;2023-06-10T05:43:47;37.40;;;34.85;;
52620;SDS011;38515;53.160;6.990;2023-06-10T05:46:13;37.33;;;35.05;;
52620;SDS011;38515;53.160;6.990;2023-06-10T05:48:38;28.38;;;26.58;;
52620;SDS011;38515;53.160;6.990;2023-06-10T05:51:04;52.55;;;49.30;;
52620;SDS011;38515;53.160;6.990;2023-06-10T05:53:31;89.32;;;84.82;;
52620;SDS011;38515;53.160;6.990;2023-06-10T05:55:57;26.83;;;24.92;;
52620;SDS011;38515;53.160;6.990;2023-06-10T05:58:24;28.02;;;26.15;;
52620;SDS011;38515;53.160;6.990;2023-06-10T06:00:50;16.38;;;14.95;;
52620;SDS011;38515;53.160;6.990;2023-06-10T06:03:15;18.13;;;16.63;;
52620;SDS011;38515;53.160;6.990;2023-06-10T06:05:42;23.10;;;21.02;;
52620;SDS011;38515;53.160;6.990;2023-06-10T06:08:09;46.25;;;42.78;;
52620;SDS011;38515;53.160;6.990;2023-06-10T06:10:35;60.40;;;57.35;;
52620;SDS011;38515;53.160;6.990;2023-06-10T06:13:01;48.20;;;45.60;;
52620;SDS011;38515;53.160;6.990;2023-06-10T06:15:27;26.20;;;24.60;;
52620;SDS011;38515;53.160;6.990;2023-06-10T06:17:53;26.83;;;24.80;;
52620;SDS011;38515;53.160;6.990;2023-06-10T06:20:19;26.08;;;24.27;;
52620;SDS011;38515;53.160;6.990;2023-06-10T06:22:46;21.17;;;19.67;;
52620;SDS011;38515;53.160;6.990;2023-06-10T06:25:12;34.60;;;32.42;;
52620;SDS011;38515;53.160;6.990;2023-06-10T06:27:38;40.25;;;37.45;;
52620;SDS011;38515;53.160;6.990;2023-06-10T06:30:04;30.27;;;28.02;;
52620;SDS011;38515;53.160;6.990;2023-06-10T06:32:31;21.17;;;19.77;;
52620;SDS011;38515;53.160;6.990;2023-06-10T06:34:57;17.17;;;15.73;;
52620;SDS011;38515;53.160;6.990;2023-06-10T06:37:24;16.60;;;15.00;;
52620;SDS011;38515;53.160;6.990;2023-06-10T06:39:51;16.67;;;15.32;;
52620;SDS011;38515;53.160;6.990;2023-06-10T06:42:18;18.00;;;15.85;;
52620;SDS011;38515;53.160;6.990;2023-06-10T06:44:44;20.90;;;18.95;;
52620;SDS011;38515;53.160;6.990;2023-06-10T06:47:11;15.73;;;14.23;;
52620;SDS011;38515;53.160;6.990;2023-06-10T06:49:37;13.40;;;11.82;;
52620;SDS011;38515;53.160;6.990;2023-06-10T06:52:03;14.80;;;13.50;;
52620;SDS011;38515;53.160;6.990;2023-06-10T06:54:29;34.60;;;32.80;;
52620;SDS011;38515;53.160;6.990;2023-06-10T06:56:56;42.17;;;39.75;;
52620;SDS011;38515;53.160;6.990;2023-06-10T06:59:22;45.45;;;42.97;;
52620;SDS011;38515;53.160;6.990;2023-06-10T07:01:48;54.35;;;51.75;;
52620;SDS011;38515;53.160;6.990;2023-06-10T07:04:15;66.22;;;62.65;;
52620;SDS011;38515;53.160;6.990;2023-06-10T07:06:41;82.15;;;78.20;;
52620;SDS011;38515;53.160;6.990;2023-06-10T07:09:07;82.90;;;79.15;;
52620;SDS011;38515;53.160;6.990;2023-06-10T07:11:36;102.43;;;98.10;;
52620;SDS011;38515;53.160;6.990;2023-06-10T07:14:02;115.72;;;110.85;;
52620;SDS011;38515;53.160;6.990;2023-06-10T07:16:28;68.57;;;65.68;;
52620;SDS011;38515;53.160;6.990;2023-06-10T07:18:54;90.35;;;86.38;;
52620;SDS011;38515;53.160;6.990;2023-06-10T07:21:20;81.43;;;77.78;;
52620;SDS011;38515;53.160;6.990;2023-06-10T07:23:47;130.70;;;125.30;;
52620;SDS011;38515;53.160;6.990;2023-06-10T07:26:14;111.80;;;107.22;;
52620;SDS011;38515;53.160;6.990;2023-06-10T07:28:40;117.13;;;112.22;;
52620;SDS011;38515;53.160;6.990;2023-06-10T07:31:06;101.75;;;97.53;;
52620;SDS011;38515;53.160;6.990;2023-06-10T07:33:33;104.40;;;99.90;;
52620;SDS011;38515;53.160;6.990;2023-06-10T07:35:59;73.05;;;69.78;;
52620;SDS011;38515;53.160;6.990;2023-06-10T07:38:26;101.90;;;97.75;;
52620;SDS011;38515;53.160;6.990;2023-06-10T07:40:52;71.63;;;68.65;;
52620;SDS011;38515;53.160;6.990;2023-06-10T07:43:18;90.15;;;86.43;;
52620;SDS011;38515;53.160;6.990;2023-06-10T07:45:53;81.03;;;77.78;;
52620;SDS011;38515;53.160;6.990;2023-06-10T07:48:19;71.55;;;68.28;;
52620;SDS011;38515;53.160;6.990;2023-06-10T07:50:44;62.88;;;60.08;;
52620;SDS011;38515;53.160;6.990;2023-06-10T07:53:10;63.83;;;61.05;;
52620;SDS011;38515;53.160;6.990;2023-06-10T07:55:36;63.97;;;60.92;;
52620;SDS011;38515;53.160;6.990;2023-06-10T07:58:02;54.40;;;51.80;;
52620;SDS011;38515;53.160;6.990;2023-06-10T08:00:28;67.10;;;63.25;;
52620;SDS011;38515;53.160;6.990;2023-06-10T08:02:54;84.57;;;81.00;;
52620;SDS011;38515;53.160;6.990;2023-06-10T08:05:20;72.05;;;69.00;;
52620;SDS011;38515;53.160;6.990;2023-06-10T08:07:46;87.50;;;83.53;;
52620;SDS011;38515;53.160;6.990;2023-06-10T08:10:12;83.32;;;79.82;;
52620;SDS011;38515;53.160;6.990;2023-06-10T08:12:38;51.90;;;49.50;;
52620;SDS011;38515;53.160;6.990;2023-06-10T08:15:04;87.47;;;83.32;;
52620;SDS011;38515;53.160;6.990;2023-06-10T08:17:31;87.30;;;83.53;;
52620;SDS011;38515;53.160;6.990;2023-06-10T08:19:57;106.20;;;101.82;;
52620;SDS011;38515;53.160;6.990;2023-06-10T08:22:22;123.15;;;118.15;;
52620;SDS011;38515;53.160;6.990;2023-06-10T08:24:48;94.63;;;90.75;;
52620;SDS011;38515;53.160;6.990;2023-06-10T08:27:14;104.82;;;100.43;;
52620;SDS011;38515;53.160;6.990;2023-06-10T08:29:40;110.05;;;105.55;;
52620;SDS011;38515;53.160;6.990;2023-06-10T08:32:06;81.30;;;77.30;;
52620;SDS011;38515;53.160;6.990;2023-06-10T08:34:35;65.80;;;62.83;;
52620;SDS011;38515;53.160;6.990;2023-06-10T08:37:02;89.53;;;85.50;;
52620;SDS011;38515;53.160;6.990;2023-06-10T08:39:29;102.25;;;98.15;;
52620;SDS011;38515;53.160;6.990;2023-06-10T08:44:42;85.32;;;81.80;;
52620;SDS011;38515;53.160;6.990;2023-06-10T08:47:15;80.07;;;76.25;;
52620;SDS011;38515;53.160;6.990;2023-06-10T08:49:45;81.03;;;77.40;;
52620;SDS011;38515;53.160;6.990;2023-06-10T08:52:14;67.88;;;64.82;;
52620;SDS011;38515;53.160;6.990;2023-06-10T08:54:47;65.55;;;62.35;;
52620;SDS011;38515;53.160;6.990;2023-06-10T08:57:34;84.45;;;80.57;;
52620;SDS011;38515;53.160;6.990;2023-06-10T09:00:00;49.58;;;47.38;;
52620;SDS011;38515;53.160;6.990;2023-06-10T09:02:28;69.20;;;66.20;;
52620;SDS011;38515;53.160;6.990;2023-06-10T09:04:55;44.63;;;42.53;;
52620;SDS011;38515;53.160;6.990;2023-06-10T09:07:22;69.05;;;65.90;;
52620;SDS011;38515;53.160;6.990;2023-06-10T09:09:49;59.35;;;56.42;;
52620;SDS011;38515;53.160;6.990;2023-06-10T09:12:15;62.70;;;59.65;;
52620;SDS011;38515;53.160;6.990;2023-06-10T09:14:41;69.05;;;66.03;;
52620;SDS011;38515;53.160;6.990;2023-06-10T09:17:08;57.47;;;54.95;;
52620;SDS011;38515;53.160;6.990;2023-06-10T09:19:34;54.97;;;52.20;;
52620;SDS011;38515;53.160;6.990;2023-06-10T09:22:01;58.85;;;56.05;;
52620;SDS011;38515;53.160;6.990;2023-06-10T09:24:28;57.80;;;54.85;;
52620;SDS011;38515;53.160;6.990;2023-06-10T09:27:04;50.58;;;48.25;;
52620;SDS011;38515;53.160;6.990;2023-06-10T09:29:48;55.50;;;52.55;;
52620;SDS011;38515;53.160;6.990;2023-06-10T09:32:18;53.00;;;50.20;;
52620;SDS011;38515;53.160;6.990;2023-06-10T09:34:44;54.63;;;51.63;;
52620;SDS011;38515;53.160;6.990;2023-06-10T09:37:11;57.33;;;54.53;;
52620;SDS011;38515;53.160;6.990;2023-06-10T09:39:39;40.58;;;37.88;;
52620;SDS011;38515;53.160;6.990;2023-06-10T09:42:18;47.97;;;45.28;;
52620;SDS011;38515;53.160;6.990;2023-06-10T09:44:50;48.78;;;46.65;;
52620;SDS011;38515;53.160;6.990;2023-06-10T09:47:20;31.73;;;29.73;;
52620;SDS011;38515;53.160;6.990;2023-06-10T09:49:50;26.83;;;25.42;;
52620;SDS011;38515;53.160;6.990;2023-06-10T09:52:25;24.85;;;23.35;;
52620;SDS011;38515;53.160;6.990;2023-06-10T09:54:59;36.95;;;34.97;;
52620;SDS011;38515;53.160;6.990;2023-06-10T09:57:26;30.23;;;28.63;;
52620;SDS011;38515;53.160;6.990;2023-06-10T10:00:10;25.10;;;23.52;;
52620;SDS011;38515;53.160;6.990;2023-06-10T10:02:47;32.30;;;30.70;;
52620;SDS011;38515;53.160;6.990;2023-06-10T10:05:15;26.80;;;25.08;;
52620;SDS011;38515;53.160;6.990;2023-06-10T10:07:42;25.05;;;23.40;;
52620;SDS011;38515;53.160;6.990;2023-06-10T10:10:08;28.33;;;26.63;;
52620;SDS011;38515;53.160;6.990;2023-06-10T10:12:36;24.45;;;23.05;;
52620;SDS011;38515;53.160;6.990;2023-06-10T10:15:05;30.15;;;28.50;;
52620;SDS011;38515;53.160;6.990;2023-06-10T10:23:12;44.90;;;42.85;;
52620;SDS011;38515;53.160;6.990;2023-06-10T10:25:41;46.28;;;43.83;;
52620;SDS011;38515;53.160;6.990;2023-06-10T10:28:10;42.35;;;40.25;;
52620;SDS011;38515;53.160;6.990;2023-06-10T10:30:40;44.65;;;42.60;;
52620;SDS011;38515;53.160;6.990;2023-06-10T10:33:16;42.08;;;40.08;;
52620;SDS011;38515;53.160;6.990;2023-06-10T10:35:48;34.40;;;32.25;;
52620;SDS011;38515;53.160;6.990;2023-06-10T10:38:15;46.33;;;44.17;;
52620;SDS011;38515;53.160;6.990;2023-06-10T10:40:44;34.05;;;32.20;;
52620;SDS011;38515;53.160;6.990;2023-06-10T10:43:12;43.13;;;41.08;;
52620;SDS011;38515;53.160;6.990;2023-06-10T10:45:39;60.83;;;58.13;;
52620;SDS011;38515;53.160;6.990;2023-06-10T10:48:05;68.93;;;65.82;;
52620;SDS011;38515;53.160;6.990;2023-06-10T10:50:37;70.90;;;67.78;;
52620;SDS011;38515;53.160;6.990;2023-06-10T10:53:04;53.75;;;50.90;;
52620;SDS011;38515;53.160;6.990;2023-06-10T10:55:31;45.75;;;43.60;;
52620;SDS011;38515;53.160;6.990;2023-06-10T10:57:58;48.58;;;45.88;;
52620;SDS011;38515;53.160;6.990;2023-06-10T11:00:27;52.85;;;50.65;;
52620;SDS011;38515;53.160;6.990;2023-06-10T11:03:07;33.75;;;31.85;;
52620;SDS011;38515;53.160;6.990;2023-06-10T11:05:38;34.78;;;32.72;;
52620;SDS011;38515;53.160;6.990;2023-06-10T11:08:05;35.25;;;33.20;;
52620;SDS011;38515;53.160;6.990;2023-06-10T11:10:32;37.15;;;35.45;;
52620;SDS011;38515;53.160;6.990;2023-06-10T11:13:00;10.95;;;9.82;;
52620;SDS011;38515;53.160;6.990;2023-06-10T11:15:33;12.85;;;11.13;;
52620;SDS011;38515;53.160;6.990;2023-06-10T11:20:41;14.15;;;11.20;;
52620;SDS011;38515;53.160;6.990;2023-06-10T11:26:16;18.25;;;16.92;;
52620;SDS011;38515;53.160;6.990;2023-06-10T11:31:20;14.73;;;13.40;;
52620;SDS011;38515;53.160;6.990;2023-06-10T11:33:57;16.10;;;14.68;;
52620;SDS011;38515;53.160;6.990;2023-06-10T11:36:23;15.88;;;14.73;;
52620;SDS011;38515;53.160;6.990;2023-06-10T11:38:54;16.98;;;15.77;;
52620;SDS011;38515;53.160;6.990;2023-06-10T11:43:52;9.88;;;8.98;;
52620;SDS011;38515;53.160;6.990;2023-06-10T11:46:22;15.73;;;13.93;;
52620;SDS011;38515;53.160;6.990;2023-06-10T11:48:49;14.05;;;10.52;;
52620;SDS011;38515;53.160;6.990;2023-06-10T11:51:16;14.98;;;13.88;;
52620;SDS011;38515;53.160;6.990;2023-06-10T11:53:45;10.68;;;9.65;;
52620;SDS011;38515;53.160;6.990;2023-06-10T11:56:21;14.70;;;13.52;;
52620;SDS011;38515;53.160;6.990;2023-06-10T11:58:55;12.90;;;11.70;;
52620;SDS011;38515;53.160;6.990;2023-06-10T12:01:23;19.00;;;17.45;;
52620;SDS011;38515;53.160;6.990;2023-06-10T12:03:57;16.13;;;14.70;;
52620;SDS011;38515;53.160;6.990;2023-06-10T12:09:13;13.25;;;11.90;;
52620;SDS011;38515;53.160;6.990;2023-06-10T12:11:41;14.52;;;12.07;;
52620;SDS011;38515;53.160;6.990;2023-06-10T12:14:09;9.95;;;8.95;;
52620;SDS011;38515;53.160;6.990;2023-06-10T12:16:34;12.65;;;11.27;;
52620;SDS011;38515;53.160;6.990;2023-06-10T12:19:01;10.85;;;9.82;;
52620;SDS011;38515;53.160;6.990;2023-06-10T12:21:28;13.23;;;12.23;;
52620;SDS011;38515;53.160;6.990;2023-06-10T12:26:34;15.15;;;11.48;;
52620;SDS011;38515;53.160;6.990;2023-06-10T12:29:01;10.05;;;9.05;;
52620;SDS011;38515;53.160;6.990;2023-06-10T12:31:53;9.98;;;9.20;;
52620;SDS011;38515;53.160;6.990;2023-06-10T12:34:27;11.32;;;8.75;;
52620;SDS011;38515;53.160;6.990;2023-06-10T12:37:10;15.60;;;9.60;;
52620;SDS011;38515;53.160;6.990;2023-06-10T12:39:40;11.73;;;9.27;;
52620;SDS011;38515;53.160;6.990;2023-06-10T12:42:08;9.10;;;8.18;;
52620;SDS011;38515;53.160;6.990;2023-06-10T12:44:39;10.07;;;9.15;;
52620;SDS011;38515;53.160;6.990;2023-06-10T12:47:09;9.80;;;8.48;;
52620;SDS011;38515;53.160;6.990;2023-06-10T12:49:39;10.50;;;9.25;;
52620;SDS011;38515;53.160;6.990;2023-06-10T12:52:05;10.30;;;8.95;;
52620;SDS011;38515;53.160;6.990;2023-06-10T12:54:32;9.95;;;9.05;;
52620;SDS011;38515;53.160;6.990;2023-06-10T12:56:59;10.15;;;9.10;;
52620;SDS011;38515;53.160;6.990;2023-06-10T12:59:26;10.20;;;9.40;;
52620;SDS011;38515;53.160;6.990;2023-06-10T13:01:53;12.65;;;8.77;;
52620;SDS011;38515;53.160;6.990;2023-06-10T13:04:19;10.77;;;9.88;;
52620;SDS011;38515;53.160;6.990;2023-06-10T13:06:46;10.63;;;9.63;;
52620;SDS011;38515;53.160;6.990;2023-06-10T13:09:14;11.85;;;9.05;;
52620;SDS011;38515;53.160;6.990;2023-06-10T13:11:40;10.50;;;9.60;;
52620;SDS011;38515;53.160;6.990;2023-06-10T13:14:07;10.85;;;8.85;;
52620;SDS011;38515;53.160;6.990;2023-06-10T13:16:36;10.70;;;9.70;;
52620;SDS011;38515;53.160;6.990;2023-06-10T13:19:04;9.38;;;8.40;;
52620;SDS011;38515;53.160;6.990;2023-06-10T13:21:31;10.48;;;8.38;;
52620;SDS011;38515;53.160;6.990;2023-06-10T13:23:58;11.10;;;8.30;;
52620;SDS011;38515;53.160;6.990;2023-06-10T13:26:23;9.07;;;8.32;;
52620;SDS011;38515;53.160;6.990;2023-06-10T13:28:49;8.65;;;7.85;;
52620;SDS011;38515;53.160;6.990;2023-06-10T13:31:15;10.95;;;8.07;;
52620;SDS011;38515;53.160;6.990;2023-06-10T13:33:41;9.55;;;8.05;;
52620;SDS011;38515;53.160;6.990;2023-06-10T13:36:09;9.25;;;8.35;;
52620;SDS011;38515;53.160;6.990;2023-06-10T13:38:35;11.02;;;8.75;;
52620;SDS011;38515;53.160;6.990;2023-06-10T13:41:01;10.05;;;7.93;;
52620;SDS011;38515;53.160;6.990;2023-06-10T13:43:26;8.57;;;7.70;;
52620;SDS011;38515;53.160;6.990;2023-06-10T13:45:54;9.52;;;8.70;;
52620;SDS011;38515;53.160;6.990;2023-06-10T13:48:20;9.02;;;8.13;;
52620;SDS011;38515;53.160;6.990;2023-06-10T13:50:46;10.07;;;9.13;;
52620;SDS011;38515;53.160;6.990;2023-06-10T13:53:12;7.72;;;7.03;;
52620;SDS011;38515;53.160;6.990;2023-06-10T13:55:38;8.10;;;7.30;;
52620;SDS011;38515;53.160;6.990;2023-06-10T13:58:04;7.93;;;7.18;;
52620;SDS011;38515;53.160;6.990;2023-06-10T14:00:30;8.43;;;7.47;;
52620;SDS011;38515;53.160;6.990;2023-06-10T14:02:56;8.70;;;7.30;;
52620;SDS011;38515;53.160;6.990;2023-06-10T14:05:22;8.73;;;7.93;;
52620;SDS011;38515;53.160;6.990;2023-06-10T14:07:48;11.23;;;10.07;;
52620;SDS011;38515;53.160;6.990;2023-06-10T14:10:14;8.48;;;7.80;;
52620;SDS011;38515;53.160;6.990;2023-06-10T14:12:40;8.75;;;8.02;;
52620;SDS011;38515;53.160;6.990;2023-06-10T14:15:06;9.73;;;8.10;;
52620;SDS011;38515;53.160;6.990;2023-06-10T14:17:32;8.27;;;7.68;;
52620;SDS011;38515;53.160;6.990;2023-06-10T14:19:58;8.32;;;7.53;;
52620;SDS011;38515;53.160;6.990;2023-06-10T14:22:23;9.48;;;8.48;;
52620;SDS011;38515;53.160;6.990;2023-06-10T14:24:49;9.48;;;8.43;;
52620;SDS011;38515;53.160;6.990;2023-06-10T14:27:15;8.23;;;7.35;;
52620;SDS011;38515;53.160;6.990;2023-06-10T14:29:41;6.85;;;6.28;;
52620;SDS011;38515;53.160;6.990;2023-06-10T14:32:07;6.05;;;5.55;;
52620;SDS011;38515;53.160;6.990;2023-06-10T14:34:34;7.57;;;6.22;;
52620;SDS011;38515;53.160;6.990;2023-06-10T14:37:00;6.05;;;5.55;;
52620;SDS011;38515;53.160;6.990;2023-06-10T14:39:28;6.40;;;5.80;;
52620;SDS011;38515;53.160;6.990;2023-06-10T14:41:54;6.43;;;5.75;;
52620;SDS011;38515;53.160;6.990;2023-06-10T14:44:20;5.90;;;5.28;;
52620;SDS011;38515;53.160;6.990;2023-06-10T14:46:45;6.07;;;5.50;;
52620;SDS011;38515;53.160;6.990;2023-06-10T14:49:11;6.20;;;5.60;;
52620;SDS011;38515;53.160;6.990;2023-06-10T14:51:37;7.10;;;6.07;;
52620;SDS011;38515;53.160;6.990;2023-06-10T14:54:03;7.30;;;5.82;;
52620;SDS011;38515;53.160;6.990;2023-06-10T14:56:29;8.57;;;5.10;;